Time;durP1;ratioP1;P1;durP2;ratioP2;P2;SDS_P1;SDS_P2;PMS_P1;PMS_P2;Temp;Humidity;BMP_temperature;BMP_pressure;BME280_temperature;BME280_humidity;BME280_pressure;Samples;Min_cycle;Max_cycle;Signal;HPM_P1;HPM_P2
2023/04/01 00:01:58;;;;;;;9.05;6.05;;;10.40;99.90;;;;;;4975616;28;20231;-85
2023/04/01 00:04:23;;;;;;;10.57;6.80;;;10.40;99.90;;;;;;4970661;28;20038;-84
2023/04/01 00:06:49;;;;;;;8.90;6.00;;;10.40;99.90;;;;;;4972601;28;20053;-84
2023/04/01 00:09:15;;;;;;;11.90;7.07;;;10.40;99.90;;;;;;4973321;28;20050;-84
2023/04/01 00:11:41;;;;;;;9.40;5.90;;;10.40;99.90;;;;;;4971074;28;20081;-84
2023/04/01 00:14:08;;;;;;;10.02;6.38;;;10.40;99.90;;;;;;4979665;28;20070;-84
2023/04/01 00:16:34;;;;;;;10.23;7.03;;;10.40;99.90;;;;;;4966570;28;20144;-85
2023/04/01 00:19:00;;;;;;;11.77;6.95;;;10.40;99.90;;;;;;4981657;28;20053;-85
2023/04/01 00:21:26;;;;;;;9.48;6.72;;;10.40;99.90;;;;;;4966640;28;20050;-84
2023/04/01 00:23:52;;;;;;;10.93;6.82;;;10.40;99.90;;;;;;4981392;28;20509;-84
2023/04/01 00:26:20;;;;;;;8.90;6.20;;;10.40;99.90;;;;;;4981594;28;20049;-84
2023/04/01 00:28:46;;;;;;;8.00;5.93;;;10.40;99.90;;;;;;4980888;28;20088;-83
2023/04/01 00:31:13;;;;;;;12.43;6.15;;;10.40;99.90;;;;;;4985206;28;20042;-82
2023/04/01 00:33:42;;;;;;;10.25;6.38;;;10.50;99.90;;;;;;4967844;28;20050;-83
2023/04/01 00:36:13;;;;;;;9.50;6.72;;;10.50;99.90;;;;;;4978924;28;20049;-85
2023/04/01 00:38:39;;;;;;;10.40;6.50;;;10.40;99.90;;;;;;4981536;28;20053;-84
2023/04/01 00:41:05;;;;;;;11.07;6.53;;;10.60;99.90;;;;;;4978299;28;20052;-85
2023/04/01 00:43:32;;;;;;;8.40;5.57;;;10.40;99.90;;;;;;4978433;28;20065;-84
2023/04/01 00:45:57;;;;;;;9.50;6.45;;;10.40;99.90;;;;;;4981479;28;20049;-84
2023/04/01 00:48:31;;;;;;;10.60;6.78;;;10.40;99.90;;;;;;4983288;28;20034;-84
2023/04/01 00:51:04;;;;;;;10.43;7.05;;;10.30;99.90;;;;;;4968825;28;20054;-83
2023/04/01 00:53:31;;;;;;;9.70;6.82;;;10.30;99.90;;;;;;4980160;28;20035;-84
2023/04/01 00:56:05;;;;;;;12.15;7.13;;;10.30;99.90;;;;;;4970606;28;20070;-85
2023/04/01 00:58:32;;;;;;;;;;;10.30;99.90;;;;;;4968174;28;20575;-85
2023/04/01 01:01:00;;;;;;;10.10;6.45;;;10.30;99.90;;;;;;4978609;28;20324;-84
2023/04/01 01:03:26;;;;;;;9.13;6.32;;;10.30;99.90;;;;;;4967609;28;20038;-84
2023/04/01 01:06:30;;;;;;;11.65;6.63;;;10.30;99.90;;;;;;4978863;28;20035;-84
2023/04/01 01:09:21;;;;;;;12.20;7.38;;;10.30;99.90;;;;;;4966165;28;20054;-83
2023/04/01 01:12:18;;;;;;;9.15;6.60;;;10.30;99.90;;;;;;4966125;28;20047;-85
2023/04/01 01:14:52;;;;;;;10.70;6.68;;;10.30;99.90;;;;;;4974804;28;20046;-85
2023/04/01 01:17:53;;;;;;;9.32;6.07;;;10.20;99.90;;;;;;4971195;28;20046;-85
2023/04/01 01:20:48;;;;;;;12.63;6.85;;;10.20;99.90;;;;;;4947907;28;20061;-85
2023/04/01 01:23:43;;;;;;;10.32;7.13;;;10.50;99.90;;;;;;4963073;28;20109;-85
2023/04/01 01:26:36;;;;;;;14.60;6.78;;;10.20;99.90;;;;;;4977304;28;20083;-85
2023/04/01 01:29:08;;;;;;;12.38;7.72;;;10.20;99.90;;;;;;4978321;28;20054;-83
2023/04/01 01:31:41;;;;;;;12.93;6.68;;;10.20;99.90;;;;;;4977524;28;20050;-83
2023/04/01 01:34:34;;;;;;;10.90;7.25;;;10.20;99.90;;;;;;4978459;28;20054;-84
2023/04/01 01:37:14;;;;;;;11.32;7.32;;;10.30;99.90;;;;;;4977153;28;20065;-84
2023/04/01 01:39:42;;;;;;;9.55;6.07;;;10.20;99.90;;;;;;4976237;28;20635;-84
2023/04/01 01:42:12;;;;;;;11.68;7.30;;;10.40;99.90;;;;;;4979504;28;20650;-84
2023/04/01 01:44:42;;;;;;;11.23;7.13;;;10.20;99.90;;;;;;4979830;28;20046;-83
2023/04/01 01:47:08;;;;;;;10.18;7.47;;;10.20;99.90;;;;;;4967120;28;20043;-83
2023/04/01 01:49:36;;;;;;;11.25;6.82;;;10.20;99.90;;;;;;4980006;28;20691;-84
2023/04/01 01:52:02;;;;;;;9.93;5.78;;;10.20;99.90;;;;;;4967928;28;20113;-84
2023/04/01 01:54:27;;;;;;;11.15;7.32;;;10.20;99.90;;;;;;4966975;28;20038;-84
2023/04/01 01:57:05;;;;;;;11.82;7.10;;;10.20;99.90;;;;;;4966561;28;20051;-84
2023/04/01 01:59:35;;;;;;;11.98;7.13;;;10.20;99.90;;;;;;4966936;28;20042;-84
2023/04/01 02:02:07;;;;;;;12.02;6.57;;;10.20;99.90;;;;;;4970383;28;20474;-84
2023/04/01 02:04:35;;;;;;;13.02;6.82;;;10.20;99.90;;;;;;4969348;28;20042;-84
2023/04/01 02:07:11;;;;;;;10.85;7.38;;;10.20;99.90;;;;;;4965044;28;20788;-84
2023/04/01 02:09:38;;;;;;;13.45;7.55;;;10.20;99.90;;;;;;4965165;28;20038;-84
2023/04/01 02:12:10;;;;;;;11.45;7.45;;;10.20;99.90;;;;;;4967086;28;20038;-84
2023/04/01 02:14:53;;;;;;;11.70;7.47;;;10.10;99.90;;;;;;4951585;28;20070;-83
2023/04/01 02:17:22;;;;;;;12.65;8.07;;;10.20;99.90;;;;;;4968764;28;20042;-84
2023/04/01 02:19:56;;;;;;;12.45;7.95;;;10.20;99.90;;;;;;4975061;28;20046;-84
2023/04/01 02:22:28;;;;;;;13.68;7.78;;;10.20;99.90;;;;;;4971902;28;20735;-85
2023/04/01 02:24:59;;;;;;;14.70;8.68;;;10.20;99.90;;;;;;4969933;28;20074;-85
2023/04/01 02:27:25;;;;;;;13.38;7.97;;;10.10;99.90;;;;;;4965522;28;20062;-85
2023/04/01 02:29:52;;;;;;;12.85;7.80;;;10.20;99.90;;;;;;4964579;28;20042;-83
2023/04/01 02:32:20;;;;;;;11.40;7.72;;;10.10;99.90;;;;;;4973563;28;20046;-84
2023/04/01 02:34:47;;;;;;;12.43;7.05;;;10.10;99.90;;;;;;4974160;28;20078;-84
2023/04/01 02:37:14;;;;;;;13.35;7.57;;;10.10;99.90;;;;;;4966908;28;20620;-84
2023/04/01 02:39:40;;;;;;;13.57;7.68;;;10.10;99.90;;;;;;4966743;28;20038;-84
2023/04/01 02:42:05;;;;;;;13.07;8.30;;;10.10;99.90;;;;;;4965591;28;20074;-84
2023/04/01 02:44:31;;;;;;;13.10;7.93;;;10.10;99.90;;;;;;4954910;28;20042;-84
2023/04/01 02:46:57;;;;;;;14.07;8.10;;;10.10;99.90;;;;;;4982446;28;20448;-84
2023/04/01 02:49:23;;;;;;;13.88;8.63;;;10.10;99.90;;;;;;4977405;28;20411;-84
2023/04/01 02:51:48;;;;;;;13.77;8.63;;;10.10;99.90;;;;;;4969759;28;20623;-84
2023/04/01 02:54:14;;;;;;;14.00;8.68;;;10.10;99.90;;;;;;4978133;28;20052;-84
2023/04/01 02:56:40;;;;;;;13.93;8.90;;;10.10;99.90;;;;;;4980765;28;20371;-84
2023/04/01 02:59:06;;;;;;;13.20;8.05;;;10.10;99.90;;;;;;4979951;28;20459;-85
2023/04/01 03:01:31;;;;;;;12.30;7.88;;;10.10;99.90;;;;;;4976810;28;20049;-84
2023/04/01 03:03:57;;;;;;;15.23;9.10;;;10.10;99.90;;;;;;4973791;28;20102;-84
2023/04/01 03:06:22;;;;;;;14.32;8.85;;;10.20;99.90;;;;;;4975562;28;20047;-84
2023/04/01 03:08:48;;;;;;;13.60;9.68;;;10.10;99.90;;;;;;4976450;28;20053;-85
2023/04/01 03:11:14;;;;;;;15.18;8.45;;;10.10;99.90;;;;;;4982666;28;20070;-84
2023/04/01 03:13:40;;;;;;;14.93;9.35;;;10.10;99.90;;;;;;4982578;28;20484;-84
2023/04/01 03:16:06;;;;;;;14.52;8.77;;;10.10;99.90;;;;;;4985372;28;20057;-84
2023/04/01 03:18:31;;;;;;;13.65;9.40;;;10.10;99.90;;;;;;4975631;28;20050;-83
2023/04/01 03:20:57;;;;;;;14.40;9.60;;;10.30;99.90;;;;;;4979995;28;20084;-85
2023/04/01 03:23:24;;;;;;;13.27;9.13;;;10.10;99.90;;;;;;4974078;28;20043;-85
2023/04/01 03:25:50;;;;;;;17.45;10.00;;;10.10;99.90;;;;;;4969709;28;20043;-84
2023/04/01 03:28:15;;;;;;;14.52;9.43;;;10.10;99.90;;;;;;4970455;28;20053;-84
2023/04/01 03:30:41;;;;;;;16.63;10.35;;;10.10;99.90;;;;;;4971300;28;20042;-83
2023/04/01 03:33:07;;;;;;;15.82;9.65;;;10.10;99.90;;;;;;4969591;28;20082;-84
2023/04/01 03:35:33;;;;;;;14.52;10.13;;;10.10;99.90;;;;;;4971760;28;20132;-84
2023/04/01 03:37:58;;;;;;;16.30;9.68;;;10.20;99.90;;;;;;4972892;28;20046;-84
2023/04/01 03:40:26;;;;;;;17.67;10.00;;;10.10;99.90;;;;;;4971297;28;20045;-84
2023/04/01 03:42:52;;;;;;;16.63;10.80;;;10.10;99.90;;;;;;4980767;28;20046;-84
2023/04/01 03:45:18;;;;;;;14.63;9.13;;;10.10;99.90;;;;;;4968216;28;20046;-85
2023/04/01 03:47:44;;;;;;;14.75;9.98;;;10.10;99.90;;;;;;4966670;28;20038;-84
2023/04/01 03:50:10;;;;;;;13.07;9.20;;;10.10;99.90;;;;;;4958591;28;20054;-84
2023/04/01 03:52:36;;;;;;;18.30;10.80;;;10.10;99.90;;;;;;4971937;28;20042;-84
2023/04/01 03:55:01;;;;;;;14.60;10.55;;;10.10;99.90;;;;;;4983897;28;20100;-83
2023/04/01 03:57:27;;;;;;;16.10;9.55;;;10.10;99.90;;;;;;4973023;28;20410;-83
2023/04/01 03:59:53;;;;;;;15.55;10.43;;;10.10;99.90;;;;;;4967277;28;20050;-84
2023/04/01 04:02:19;;;;;;;15.70;9.77;;;10.10;99.90;;;;;;4966638;28;20043;-84
2023/04/01 04:04:46;;;;;;;16.73;10.35;;;10.10;99.90;;;;;;4974879;28;20122;-84
2023/04/01 04:07:12;;;;;;;15.18;9.10;;;10.50;99.90;;;;;;4974226;28;20664;-85
2023/04/01 04:09:37;;;;;;;16.40;10.40;;;10.00;99.90;;;;;;4965785;28;20049;-84
2023/04/01 04:12:05;;;;;;;16.40;10.13;;;10.10;99.90;;;;;;4973050;28;20049;-84
2023/04/01 04:14:31;;;;;;;18.92;9.38;;;10.10;99.90;;;;;;4971446;28;20046;-85
2023/04/01 04:16:56;;;;;;;18.85;10.23;;;10.10;99.90;;;;;;4966574;28;20054;-85
2023/04/01 04:19:22;;;;;;;16.35;9.30;;;10.10;99.90;;;;;;4978078;28;20085;-85
2023/04/01 04:21:48;;;;;;;19.40;10.02;;;10.00;99.90;;;;;;4969641;28;20106;-85
2023/04/01 04:24:13;;;;;;;14.77;8.77;;;10.00;99.90;;;;;;4968012;28;20210;-85
2023/04/01 04:26:39;;;;;;;14.73;9.25;;;10.00;99.90;;;;;;4968385;28;20046;-85
2023/04/01 04:29:05;;;;;;;13.05;7.90;;;10.00;99.90;;;;;;4969211;28;20047;-85
2023/04/01 04:31:30;;;;;;;14.05;8.70;;;10.00;99.90;;;;;;4975282;28;20153;-85
2023/04/01 04:33:56;;;;;;;16.83;9.02;;;10.00;99.90;;;;;;4965441;28;20122;-85
2023/04/01 04:36:22;;;;;;;15.63;8.80;;;10.00;99.90;;;;;;4974100;28;20053;-84
2023/04/01 04:38:47;;;;;;;14.50;8.60;;;10.00;99.90;;;;;;4967014;28;20090;-84
2023/04/01 04:41:16;;;;;;;17.30;9.98;;;10.00;99.90;;;;;;4971835;28;20054;-84
2023/04/01 04:43:48;;;;;;;19.80;9.52;;;10.00;99.90;;;;;;4965927;28;20631;-84
2023/04/01 04:46:13;;;;;;;16.35;9.30;;;10.00;99.90;;;;;;4973995;28;20050;-84
2023/04/01 04:48:39;;;;;;;17.38;10.13;;;10.00;99.90;;;;;;4956733;28;20049;-84
2023/04/01 04:51:05;;;;;;;18.15;9.63;;;10.00;99.90;;;;;;4976188;28;20061;-84
2023/04/01 04:53:30;;;;;;;13.60;8.13;;;10.00;99.90;;;;;;4970160;28;20174;-84
2023/04/01 04:55:56;;;;;;;16.80;9.85;;;10.00;99.90;;;;;;4966156;28;20043;-84
2023/04/01 04:58:22;;;;;;;17.50;10.35;;;10.00;99.90;;;;;;4970756;28;20052;-84
2023/04/01 05:00:47;;;;;;;16.00;10.15;;;10.00;99.90;;;;;;4970959;28;20038;-84
2023/04/01 05:03:14;;;;;;;17.65;10.57;;;10.00;99.90;;;;;;4979212;28;20046;-83
2023/04/01 05:05:47;;;;;;;15.25;9.93;;;10.00;99.90;;;;;;4971149;28;20035;-84
2023/04/01 05:08:13;;;;;;;16.95;9.82;;;10.00;99.90;;;;;;4975509;28;20074;-85
2023/04/01 05:10:38;;;;;;;18.05;9.85;;;9.90;99.90;;;;;;4980986;28;20373;-84
2023/04/01 05:13:04;;;;;;;17.33;10.38;;;10.00;99.90;;;;;;4968692;28;20253;-84
2023/04/01 05:15:29;;;;;;;15.82;10.23;;;10.10;99.90;;;;;;4972573;28;20053;-84
2023/04/01 05:17:55;;;;;;;14.32;9.27;;;10.00;99.90;;;;;;4976433;28;20416;-84
2023/04/01 05:20:21;;;;;;;17.80;10.77;;;10.00;99.90;;;;;;4974353;28;20046;-85
2023/04/01 05:22:46;;;;;;;14.18;8.52;;;10.00;99.90;;;;;;4974220;28;20039;-84
2023/04/01 05:25:15;;;;;;;16.40;9.20;;;10.00;99.90;;;;;;4976452;28;20756;-84
2023/04/01 05:27:41;;;;;;;12.80;7.43;;;9.70;99.90;;;;;;4969861;28;20056;-88
2023/04/01 05:30:07;;;;;;;10.85;6.30;;;10.00;99.90;;;;;;4971522;28;20054;-87
2023/04/01 05:32:33;;;;;;;9.32;4.40;;;10.00;99.90;;;;;;4983370;28;20180;-88
2023/04/01 05:34:58;;;;;;;7.95;4.30;;;10.10;99.90;;;;;;4982015;28;20138;-87
2023/04/01 05:37:24;;;;;;;7.40;4.53;;;9.90;99.90;;;;;;4981663;28;20129;-88
2023/04/01 05:39:49;;;;;;;9.38;4.47;;;10.00;99.90;;;;;;4977229;28;20043;-86
2023/04/01 05:42:16;;;;;;;9.35;5.05;;;9.90;99.90;;;;;;4976974;28;20047;-85
2023/04/01 05:44:41;;;;;;;8.30;4.90;;;9.90;99.90;;;;;;4967873;28;20055;-85
2023/04/01 05:47:07;;;;;;;9.45;5.78;;;9.90;99.90;;;;;;4969605;28;20041;-84
2023/04/01 05:49:33;;;;;;;10.68;5.93;;;9.90;99.90;;;;;;4972131;28;20393;-84
2023/04/01 05:51:59;;;;;;;12.45;6.32;;;10.10;99.90;;;;;;4949093;28;20055;-84
2023/04/01 05:54:25;;;;;;;11.38;6.28;;;9.90;99.90;;;;;;4966453;28;20058;-84
2023/04/01 05:56:51;;;;;;;14.48;6.35;;;9.90;99.90;;;;;;4969002;28;20129;-84
2023/04/01 05:59:16;;;;;;;10.57;6.38;;;9.90;99.90;;;;;;4954230;28;20131;-84
2023/04/01 06:01:42;;;;;;;14.70;8.43;;;9.90;99.90;;;;;;4968495;28;20065;-84
2023/04/01 06:04:15;;;;;;;18.35;10.30;;;9.90;99.90;;;;;;4965816;28;20034;-84
2023/04/01 06:06:41;;;;;;;19.13;10.70;;;9.90;99.90;;;;;;4976184;28;20037;-83
2023/04/01 06:09:15;;;;;;;15.27;10.07;;;9.90;99.90;;;;;;4961641;28;20088;-84
2023/04/01 06:12:05;;;;;;;15.35;9.45;;;9.90;99.90;;;;;;4952091;28;20064;-84
2023/04/01 06:14:44;;;;;;;18.30;11.75;;;9.90;99.90;;;;;;4973781;28;20149;-83
2023/04/01 06:18:00;;;;;;;21.45;13.05;;;9.90;99.90;;;;;;4980129;28;20050;-85
2023/04/01 06:20:32;;;;;;;17.85;11.35;;;9.90;99.90;;;;;;4933698;29;20143;-81
2023/04/01 06:23:16;;;;;;;18.20;11.57;;;9.90;99.90;;;;;;4909410;29;20150;-82
2023/04/01 06:26:12;;;;;;;22.00;13.18;;;9.90;99.90;;;;;;4937112;29;20043;-84
2023/04/01 06:29:02;;;;;;;21.00;12.27;;;9.90;99.90;;;;;;4939251;29;20132;-83
2023/04/01 06:31:51;;;;;;;24.20;13.52;;;9.90;99.90;;;;;;4937283;29;20051;-83
2023/04/01 06:34:36;;;;;;;23.10;13.75;;;10.00;99.90;;;;;;4930775;29;20457;-84
2023/04/01 06:37:24;;;;;;;22.92;14.45;;;10.00;99.90;;;;;;4918754;29;20050;-84
2023/04/01 06:39:52;;;;;;;24.80;13.77;;;10.00;99.90;;;;;;4934614;29;20050;-83
2023/04/01 06:42:33;;;;;;;24.83;15.45;;;10.00;99.90;;;;;;4933145;29;20046;-84
2023/04/01 06:45:13;;;;;;;23.13;14.38;;;10.10;99.90;;;;;;4928944;29;20084;-84
2023/04/01 06:47:57;;;;;;;25.45;14.65;;;10.00;99.90;;;;;;4936056;29;20741;-83
2023/04/01 06:51:00;;;;;;;24.92;14.90;;;10.00;99.90;;;;;;4949882;28;20054;-84
2023/04/01 06:54:05;;;;;;;25.67;15.13;;;10.00;99.90;;;;;;4981832;28;20051;-85
2023/04/01 06:56:32;;;;;;;21.85;14.68;;;10.00;99.90;;;;;;4961517;28;20082;-85
2023/04/01 06:59:04;;;;;;;19.90;13.10;;;10.00;99.90;;;;;;4944277;28;20815;-85
2023/04/01 07:01:35;;;;;;;26.65;15.85;;;10.00;99.90;;;;;;4960636;28;20057;-84
2023/04/01 07:04:13;;;;;;;26.60;14.95;;;10.00;99.90;;;;;;4944087;28;20057;-84
2023/04/01 07:07:00;;;;;;;23.00;14.52;;;10.00;99.90;;;;;;4960095;28;20535;-84
2023/04/01 07:09:36;;;;;;;23.83;15.25;;;10.00;99.90;;;;;;4929823;28;20508;-84
2023/04/01 07:12:11;;;;;;;23.10;14.85;;;10.00;99.90;;;;;;4962066;28;20488;-84
2023/04/01 07:14:40;;;;;;;22.10;14.48;;;10.00;99.90;;;;;;4957233;28;20636;-84
2023/04/01 07:17:20;;;;;;;25.77;14.80;;;10.00;99.90;;;;;;4962081;28;20047;-85
2023/04/01 07:19:53;;;;;;;24.70;14.60;;;10.00;99.90;;;;;;4957420;28;20055;-84
2023/04/01 07:22:48;;;;;;;25.17;14.43;;;10.00;99.90;;;;;;4947251;28;20138;-84
2023/04/01 07:25:28;;;;;;;24.95;14.68;;;10.00;99.90;;;;;;4957288;28;20043;-84
2023/04/01 07:28:02;;;;;;;23.42;14.52;;;10.20;99.90;;;;;;4972159;28;20047;-85
2023/04/01 07:30:37;;;;;;;24.67;14.75;;;10.70;99.90;;;;;;4979339;28;20611;-85
2023/04/01 07:33:28;;;;;;;22.23;12.90;;;10.00;99.90;;;;;;4972788;28;20127;-85
2023/04/01 07:36:02;;;;;;;26.40;14.50;;;10.10;99.90;;;;;;4984187;28;20056;-83
2023/04/01 07:38:28;;;;;;;;;;;10.10;99.90;;;;;;4983160;28;20089;-85
2023/04/01 07:41:12;;;;;;;27.38;15.63;;;10.10;99.90;;;;;;4974154;28;19991;-85
2023/04/01 07:43:52;;;;;;;25.05;15.30;;;10.10;99.90;;;;;;4984895;28;20116;-85
2023/04/01 07:46:46;;;;;;;26.05;14.43;;;10.10;99.90;;;;;;4974832;28;20070;-85
2023/04/01 07:49:42;;;;;;;26.05;13.68;;;10.20;99.90;;;;;;4981491;28;20043;-86
2023/04/01 07:52:40;;;;;;;26.98;15.07;;;10.10;99.90;;;;;;4972979;28;20042;-85
2023/04/01 07:55:18;;;;;;;26.73;14.73;;;10.20;99.90;;;;;;4976727;28;20054;-85
2023/04/01 07:58:14;;;;;;;24.33;14.82;;;10.20;99.90;;;;;;4979210;28;20038;-84
2023/04/01 08:00:46;;;;;;;25.30;15.35;;;10.20;99.90;;;;;;4984673;28;20631;-82
2023/04/01 08:03:28;;;;;;;25.35;13.80;;;10.30;99.90;;;;;;4970276;28;20078;-83
2023/04/01 08:06:06;;;;;;;28.85;16.50;;;10.30;99.90;;;;;;4974589;28;20054;-83
2023/04/01 08:08:46;;;;;;;26.75;16.45;;;10.40;99.90;;;;;;4975704;28;20038;-82
2023/04/01 08:11:35;;;;;;;27.05;16.02;;;10.40;99.90;;;;;;4975532;28;20104;-83
2023/04/01 08:14:34;;;;;;;27.67;15.35;;;10.40;99.90;;;;;;4970907;28;20043;-82
2023/04/01 08:17:12;;;;;;;28.10;15.98;;;10.50;99.90;;;;;;4982330;28;20085;-82
2023/04/01 08:20:02;;;;;;;23.88;14.20;;;10.50;99.90;;;;;;4981494;28;20062;-83
2023/04/01 08:22:37;;;;;;;22.63;13.95;;;10.50;99.90;;;;;;4972085;28;20039;-84
2023/04/01 08:25:07;;;;;;;25.83;15.05;;;10.60;99.90;;;;;;4978277;28;20047;-84
2023/04/01 08:27:48;;;;;;;26.30;15.63;;;10.50;99.90;;;;;;4958259;28;20045;-84
2023/04/01 08:30:21;;;;;;;25.90;14.77;;;10.60;99.90;;;;;;4970916;28;20339;-83
2023/04/01 08:32:50;;;;;;;21.75;12.38;;;10.60;99.90;;;;;;4970612;28;20116;-82
2023/04/01 08:35:30;;;;;;;16.75;10.65;;;10.60;99.90;;;;;;4965917;28;20043;-83
2023/04/01 08:38:01;;;;;;;19.50;11.68;;;10.70;99.90;;;;;;4978503;28;20047;-84
2023/04/01 08:40:44;;;;;;;20.05;11.55;;;10.70;99.90;;;;;;4975487;28;20050;-84
2023/04/01 08:43:54;;;;;;;18.02;9.73;;;10.80;99.90;;;;;;4968465;28;20099;-84
2023/04/01 08:46:48;;;;;;;17.45;9.88;;;10.90;99.90;;;;;;4974401;28;20412;-84
2023/04/01 08:49:50;;;;;;;17.17;9.90;;;11.00;99.90;;;;;;4977388;28;20085;-84
2023/04/01 08:52:29;;;;;;;19.08;10.77;;;11.00;99.90;;;;;;4972129;28;20050;-84
2023/04/01 08:55:04;;;;;;;16.58;9.68;;;11.00;99.90;;;;;;4986705;28;20089;-85
2023/04/01 08:57:55;;;;;;;17.25;9.70;;;11.00;99.90;;;;;;4955682;28;20223;-84
2023/04/01 09:00:31;;;;;;;15.77;10.00;;;11.00;99.90;;;;;;4961095;28;20053;-83
2023/04/01 09:03:24;;;;;;;17.80;10.07;;;11.10;99.90;;;;;;4970932;28;20054;-85
2023/04/01 09:06:24;;;;;;;16.05;10.02;;;11.00;99.90;;;;;;4974614;28;20065;-85
2023/04/01 09:08:55;;;;;;;18.33;10.93;;;11.00;99.90;;;;;;4972853;28;20128;-83
2023/04/01 09:11:42;;;;;;;17.40;10.88;;;11.00;99.90;;;;;;4982452;28;20049;-82
2023/04/01 09:14:27;;;;;;;17.23;10.57;;;11.00;99.90;;;;;;4966888;28;20042;-84
2023/04/01 09:17:11;;;;;;;16.02;10.75;;;11.00;99.90;;;;;;4976506;28;20053;-84
2023/04/01 09:20:10;;;;;;;18.85;11.38;;;11.00;99.90;;;;;;4972340;28;20134;-84
2023/04/01 09:23:10;;;;;;;18.70;11.05;;;11.00;99.90;;;;;;4975356;28;20050;-84
2023/04/01 09:25:53;;;;;;;16.48;9.65;;;11.00;99.90;;;;;;4960932;28;20055;-85
2023/04/01 09:28:42;;;;;;;16.25;9.73;;;11.00;99.90;;;;;;4974246;28;20798;-85
2023/04/01 09:31:24;;;;;;;15.57;9.00;;;11.00;99.90;;;;;;4970746;28;20045;-85
2023/04/01 09:34:12;;;;;;;13.10;8.35;;;11.00;99.90;;;;;;4969159;28;20504;-85
2023/04/01 09:36:48;;;;;;;14.20;8.68;;;11.00;99.90;;;;;;4969054;28;20066;-86
2023/04/01 09:39:28;;;;;;;15.02;8.00;;;11.10;99.90;;;;;;4980486;28;20157;-86
2023/04/01 09:42:00;;;;;;;13.45;7.68;;;11.10;99.90;;;;;;4972051;28;20065;-85
2023/04/01 09:44:31;;;;;;;10.07;6.43;;;11.20;99.90;;;;;;4972048;28;20070;-85
2023/04/01 09:47:03;;;;;;;11.32;5.60;;;11.20;99.90;;;;;;4979079;28;20080;-85
2023/04/01 09:49:42;;;;;;;9.13;4.70;;;11.10;99.90;;;;;;4973646;28;20050;-84
2023/04/01 09:52:35;;;;;;;7.68;4.32;;;11.10;99.90;;;;;;4979830;28;20150;-84
2023/04/01 09:55:18;;;;;;;8.07;5.05;;;11.00;99.90;;;;;;4972786;28;20152;-84
2023/04/01 09:57:55;;;;;;;6.88;4.22;;;11.00;99.90;;;;;;4977550;28;20046;-83
2023/04/01 10:00:47;;;;;;;7.25;3.22;;;10.90;99.90;;;;;;4964306;28;20051;-83
2023/04/01 10:03:32;;;;;;;6.18;3.78;;;10.80;99.90;;;;;;4969036;28;20150;-86
2023/04/01 10:06:51;;;;;;;8.35;4.93;;;10.80;99.90;;;;;;4965515;28;20050;-83
2023/04/01 10:09:49;;;;;;;5.30;2.95;;;10.70;99.90;;;;;;4967207;28;20050;-83
2023/04/01 10:12:32;;;;;;;4.25;2.40;;;10.70;99.90;;;;;;4967103;28;20046;-83
2023/04/01 10:15:03;;;;;;;5.75;3.25;;;10.70;99.90;;;;;;4974888;28;20085;-83
2023/04/01 10:18:04;;;;;;;6.30;2.78;;;10.90;99.90;;;;;;4973031;28;20082;-83
2023/04/01 10:21:14;;;;;;;4.43;2.45;;;10.70;99.90;;;;;;4938349;28;20928;-83
2023/04/01 10:24:01;;;;;;;6.38;2.75;;;10.70;99.90;;;;;;4863255;29;20060;-83
2023/04/01 10:26:45;;;;;;;5.68;2.90;;;10.60;99.90;;;;;;4900718;29;20056;-83
2023/04/01 10:29:40;;;;;;;4.05;2.30;;;10.60;99.90;;;;;;4907229;29;20060;-83
2023/04/01 10:32:17;;;;;;;4.97;2.58;;;10.50;99.90;;;;;;4903446;29;20047;-83
2023/04/01 10:35:01;;;;;;;6.00;3.45;;;10.50;99.90;;;;;;4902675;29;20063;-83
2023/04/01 10:37:41;;;;;;;4.07;2.22;;;10.40;99.90;;;;;;4901093;29;20578;-83
2023/04/01 10:40:26;;;;;;;4.68;2.70;;;10.50;99.90;;;;;;4900729;29;20080;-83
2023/04/01 10:43:26;;;;;;;4.30;2.17;;;10.50;99.90;;;;;;4899478;29;20570;-84
2023/04/01 10:46:17;;;;;;;3.88;2.00;;;10.50;99.90;;;;;;4859313;29;20051;-83
2023/04/01 10:49:19;;;;;;;3.83;2.25;;;10.50;99.90;;;;;;4876795;29;20461;-83
2023/04/01 10:52:03;;;;;;;4.38;2.30;;;10.50;99.90;;;;;;4882270;29;20078;-84
2023/04/01 10:54:58;;;;;;;4.55;2.67;;;10.70;99.90;;;;;;4888009;29;20050;-84
2023/04/01 10:57:32;;;;;;;4.13;2.15;;;10.50;99.90;;;;;;4883799;29;20059;-84
2023/04/01 11:00:26;;;;;;;3.80;1.58;;;10.50;99.90;;;;;;4917187;28;20051;-84
2023/04/01 11:03:34;;;;;;;3.97;1.83;;;10.50;99.90;;;;;;4965993;28;20117;-83
2023/04/01 11:06:36;;;;;;;3.85;2.00;;;10.50;99.90;;;;;;4970399;28;20045;-84
2023/04/01 11:09:24;;;;;;;4.63;2.30;;;10.50;99.90;;;;;;4972171;28;20184;-82
2023/04/01 11:12:31;;;;;;;4.13;2.10;;;10.50;99.90;;;;;;4960727;28;20054;-84
2023/04/01 11:15:19;;;;;;;3.65;2.03;;;10.50;99.90;;;;;;4972269;28;20106;-81
2023/04/01 11:18:04;;;;;;;4.05;2.13;;;10.50;99.90;;;;;;4975336;28;20053;-83
2023/04/01 11:21:11;;;;;;;3.88;2.05;;;10.50;99.90;;;;;;4975229;28;20074;-83
2023/04/01 11:23:55;;;;;;;4.00;2.03;;;10.40;99.90;;;;;;4939311;28;20046;-83
2023/04/01 11:26:40;;;;;;;3.75;1.88;;;10.50;99.90;;;;;;4943153;28;20051;-83
2023/04/01 11:29:26;;;;;;;5.13;2.17;;;10.50;99.90;;;;;;4940198;29;20047;-83
2023/04/01 11:32:16;;;;;;;4.20;2.28;;;10.50;99.90;;;;;;4926397;29;20815;-84
2023/04/01 11:35:00;;;;;;;5.18;2.30;;;10.50;99.90;;;;;;4939264;28;20135;-83
2023/04/01 11:37:49;;;;;;;4.13;2.55;;;10.60;99.90;;;;;;4942340;28;20425;-83
2023/04/01 11:40:46;;;;;;;4.25;2.42;;;10.60;99.90;;;;;;4920247;28;20652;-83
2023/04/01 11:43:41;;;;;;;3.95;2.38;;;10.60;99.90;;;;;;4938319;28;20044;-83
2023/04/01 11:46:25;;;;;;;4.35;2.17;;;10.70;99.90;;;;;;4934771;28;20043;-84
2023/04/01 11:49:02;;;;;;;4.38;2.60;;;10.70;99.90;;;;;;4936999;28;20055;-80
2023/04/01 11:51:42;;;;;;;4.95;2.38;;;10.50;99.90;;;;;;4927915;28;20486;-84
2023/04/01 11:54:37;;;;;;;3.85;2.00;;;10.80;99.90;;;;;;4943304;28;20047;-82
2023/04/01 11:57:33;;;;;;;4.38;2.65;;;10.80;99.90;;;;;;4945905;28;20575;-82
2023/04/01 12:00:18;;;;;;;4.63;2.42;;;10.80;99.90;;;;;;4967636;28;20055;-82
2023/04/01 12:03:14;;;;;;;4.20;2.42;;;10.80;99.90;;;;;;4964375;28;20110;-82
2023/04/01 12:05:57;;;;;;;3.88;2.30;;;10.90;99.90;;;;;;4968585;28;20486;-82
2023/04/01 12:08:53;;;;;;;4.55;2.13;;;10.90;99.90;;;;;;4968490;28;20130;-82
2023/04/01 12:11:36;;;;;;;4.43;2.30;;;10.90;99.90;;;;;;4976327;28;20042;-82
2023/04/01 12:14:22;;;;;;;4.28;2.20;;;10.90;99.90;;;;;;4970622;28;20046;-82
2023/04/01 12:17:26;;;;;;;3.95;2.03;;;10.90;99.90;;;;;;4977123;28;20042;-82
2023/04/01 12:20:20;;;;;;;2.53;1.52;;;10.90;99.90;;;;;;4946633;28;20059;-81
2023/04/01 12:23:13;;;;;;;3.08;1.33;;;11.00;99.90;;;;;;4968830;28;20577;-82
2023/04/01 12:26:00;;;;;;;3.22;1.75;;;11.00;99.90;;;;;;4966582;28;20038;-82
2023/04/01 12:28:48;;;;;;;5.43;1.98;;;10.90;99.90;;;;;;4992620;28;20667;-83
2023/04/01 12:31:37;;;;;;;4.80;2.10;;;11.00;99.90;;;;;;4969413;28;20042;-82
2023/04/01 12:34:27;;;;;;;5.10;2.20;;;11.00;99.90;;;;;;4970029;28;20043;-82
2023/04/01 12:37:14;;;;;;;4.32;2.10;;;10.90;99.90;;;;;;4971816;28;20449;-82
2023/04/01 12:39:59;;;;;;;3.92;2.00;;;10.90;99.90;;;;;;4964832;28;20086;-82
2023/04/01 12:42:45;;;;;;;3.95;2.10;;;10.80;99.90;;;;;;4966607;28;20532;-82
2023/04/01 12:45:30;;;;;;;3.80;2.20;;;10.90;99.90;;;;;;4966855;28;20046;-83
2023/04/01 12:48:17;;;;;;;4.18;2.10;;;10.90;99.90;;;;;;4986194;28;20050;-83
2023/04/01 12:51:15;;;;;;;3.63;2.10;;;10.90;99.90;;;;;;4971630;28;20042;-82
2023/04/01 12:53:59;;;;;;;3.47;2.20;;;11.00;99.90;;;;;;4970898;28;20480;-82
2023/04/01 12:56:50;;;;;;;4.07;2.20;;;11.00;99.90;;;;;;4966927;28;20408;-82
2023/04/01 13:00:03;;;;;;;5.68;1.90;;;11.10;99.90;;;;;;4969169;28;20054;-80
2023/04/01 13:03:01;;;;;;;4.18;2.05;;;11.00;99.90;;;;;;4967925;28;20054;-80
2023/04/01 13:05:32;;;;;;;3.10;1.73;;;11.00;99.90;;;;;;4972490;28;20065;-80
2023/04/01 13:08:02;;;;;;;3.17;2.08;;;10.90;99.90;;;;;;4971160;28;20046;-80
2023/04/01 13:10:37;;;;;;;3.60;2.03;;;10.90;99.90;;;;;;4975132;28;20129;-80
2023/04/01 13:13:26;;;;;;;3.30;2.10;;;10.90;99.90;;;;;;4975879;28;20518;-80
2023/04/01 13:16:14;;;;;;;4.25;2.10;;;10.80;99.90;;;;;;4964042;28;20866;-81
2023/04/01 13:19:06;;;;;;;3.13;1.70;;;10.80;99.90;;;;;;4967316;28;20109;-80
2023/04/01 13:21:55;;;;;;;3.40;1.48;;;10.80;99.90;;;;;;4964911;28;20752;-81
2023/04/01 13:25:02;;;;;;;2.92;1.92;;;10.80;99.90;;;;;;4954778;28;20163;-81
2023/04/01 13:27:34;;;;;;;3.40;1.70;;;10.80;99.90;;;;;;4947365;28;20043;-80
2023/04/01 13:30:17;;;;;;;3.60;1.58;;;10.70;99.90;;;;;;4938408;28;20674;-81
2023/04/01 13:33:08;;;;;;;2.67;1.52;;;10.80;99.90;;;;;;4935693;28;20051;-80